Time;durP1;ratioP1;P1;durP2;ratioP2;P2;SDS_P1;SDS_P2;PMS_P1;PMS_P2;Temp;Humidity;BMP_temperature;BMP_pressure;BME280_temperature;BME280_humidity;BME280_pressure;Samples;Min_cycle;Max_cycle;Signal;HPM_P1;HPM_P2
2021/03/05 00:00:22;;;;;;;40.70;21.95;;;;;;;3.03;74.87;98602.30;1763514;80;22051;-60
2021/03/05 00:02:52;;;;;;;42.50;21.30;;;;;;;3.00;75.08;98601.27;1759670;80;21586;-60
2021/03/05 00:05:21;;;;;;;44.85;22.40;;;;;;;2.93;75.38;98585.27;1753202;80;21367;-60
2021/03/05 00:07:50;;;;;;;37.88;20.45;;;;;;;2.91;75.54;98598.20;1765236;80;21148;-60
2021/03/05 00:10:22;;;;;;;33.28;20.50;;;;;;;2.95;75.73;98606.95;1740348;80;20958;-60
2021/03/05 00:12:50;;;;;;;27.90;17.50;;;;;;;3.02;75.54;98604.60;1748210;80;21637;-59
2021/03/05 00:15:17;;;;;;;28.23;17.60;;;;;;;3.05;75.40;98595.92;1759201;80;21066;-60
2021/03/05 00:17:44;;;;;;;29.02;18.10;;;;;;;3.08;75.27;98594.80;1742555;80;21397;-61
2021/03/05 00:20:15;;;;;;;25.37;16.80;;;;;;;3.10;75.31;98588.95;1774400;80;21133;-60
2021/03/05 00:22:42;;;;;;;25.75;16.10;;;;;;;3.10;75.25;98582.38;1703753;84;21050;-60
2021/03/05 00:25:11;;;;;;;28.27;16.73;;;;;;;3.11;74.84;98586.64;1747713;80;21216;-60
2021/03/05 00:27:38;;;;;;;28.70;17.02;;;;;;;3.07;74.59;98585.28;1743762;80;21062;-60
2021/03/05 00:30:07;;;;;;;26.23;15.95;;;;;;;3.04;74.51;98585.57;1764231;80;21398;-62
2021/03/05 00:32:35;;;;;;;26.52;16.65;;;;;;;2.97;74.56;98590.55;1743638;80;21592;-60
2021/03/05 00:35:06;;;;;;;25.10;15.83;;;;;;;2.93;74.91;98587.05;1743642;80;21154;-60
2021/03/05 00:37:33;;;;;;;25.80;16.42;;;;;;;2.92;74.97;98582.28;1741453;80;21574;-60
2021/03/05 00:40:01;;;;;;;30.12;17.75;;;;;;;2.92;74.86;98575.71;1737275;80;21140;-60
2021/03/05 00:42:28;;;;;;;31.57;17.67;;;;;;;2.92;74.77;98572.28;1704637;82;21272;-60
2021/03/05 00:44:57;;;;;;;30.97;18.25;;;;;;;2.92;74.71;98560.46;1755578;80;20999;-60
2021/03/05 00:47:25;;;;;;;28.62;18.00;;;;;;;2.96;74.71;98567.06;1772128;80;21080;-60
2021/03/05 00:49:53;;;;;;;34.30;19.07;;;;;;;3.00;74.59;98567.11;1774282;80;21135;-63
2021/03/05 00:52:21;;;;;;;27.07;16.85;;;;;;;3.04;74.40;98573.27;1764352;80;21587;-60
2021/03/05 00:54:49;;;;;;;28.17;18.17;;;;;;;3.04;74.26;98570.64;1750897;80;21204;-60
2021/03/05 00:57:16;;;;;;;27.05;17.90;;;;;;;3.00;74.28;98576.30;1745960;80;21216;-61
2021/03/05 00:59:44;;;;;;;30.20;18.70;;;;;;;2.97;74.60;98581.36;1762232;80;21019;-61
2021/03/05 01:02:11;;;;;;;26.90;17.27;;;;;;;2.95;74.79;98585.11;1744868;80;21013;-60
2021/03/05 01:04:39;;;;;;;30.72;18.05;;;;;;;2.93;75.01;98591.83;1743601;80;21162;-61
2021/03/05 01:07:08;;;;;;;36.33;19.80;;;;;;;2.94;75.25;98590.03;1763073;80;21351;-61
2021/03/05 01:09:35;;;;;;;35.73;21.50;;;;;;;2.91;75.41;98588.52;1747533;80;21619;-61
2021/03/05 01:12:04;;;;;;;31.42;19.32;;;;;;;2.92;75.58;98594.62;1745513;80;21177;-61
2021/03/05 01:14:32;;;;;;;34.85;19.82;;;;;;;2.90;75.88;98593.42;1737929;80;21160;-61
2021/03/05 01:16:59;;;;;;;26.50;17.70;;;;;;;2.92;76.15;98589.36;1740529;81;21109;-61
2021/03/05 01:19:27;;;;;;;44.05;22.90;;;;;;;2.94;76.46;98591.35;1765293;80;21460;-60
2021/03/05 01:21:55;;;;;;;38.35;21.27;;;;;;;2.92;76.57;98589.36;1767100;80;21093;-61
2021/03/05 01:24:23;;;;;;;28.92;20.30;;;;;;;2.87;76.80;98576.63;1757773;80;20954;-60
2021/03/05 01:26:52;;;;;;;35.05;21.15;;;;;;;2.87;77.04;98584.99;1686048;84;21212;-60
2021/03/05 01:29:20;;;;;;;32.88;20.60;;;;;;;2.83;77.08;98571.81;1744002;80;20944;-60
2021/03/05 01:31:47;;;;;;;35.38;20.97;;;;;;;2.83;77.26;98575.76;1757172;80;21354;-60
2021/03/05 01:34:15;;;;;;;34.08;20.62;;;;;;;2.82;77.29;98578.86;1755990;80;21009;-59
2021/03/05 01:36:42;;;;;;;29.45;18.35;;;;;;;2.80;77.47;98570.78;1748277;80;21149;-60
2021/03/05 01:39:10;;;;;;;25.82;18.10;;;;;;;2.81;77.53;98565.89;1764288;80;21550;-62
2021/03/05 01:41:37;;;;;;;34.65;18.73;;;;;;;2.84;77.53;98570.86;1743607;80;21112;-59
2021/03/05 01:44:07;;;;;;;33.63;20.32;;;;;;;2.86;77.55;98577.63;1763686;80;21498;-60
2021/03/05 01:46:35;;;;;;;31.10;17.87;;;;;;;2.89;77.48;98585.70;1740940;80;21047;-60
2021/03/05 01:49:03;;;;;;;25.50;17.27;;;;;;;2.91;77.40;98590.32;1743570;81;21007;-60
2021/03/05 01:51:32;;;;;;;30.82;18.98;;;;;;;2.92;77.45;98588.05;1757096;80;21113;-60
2021/03/05 01:54:00;;;;;;;27.82;17.35;;;;;;;2.88;77.40;98587.97;1748685;80;21003;-60
2021/03/05 01:56:39;;;;;;;26.55;16.30;;;;;;;2.86;77.39;98584.67;1743730;80;21389;-60
2021/03/05 01:59:10;;;;;;;25.43;16.52;;;;;;;2.85;77.49;98590.41;1744043;80;21185;-60
2021/03/05 02:01:38;;;;;;;29.07;16.42;;;;;;;2.85;77.44;98584.31;1702969;84;21127;-60
2021/03/05 02:04:12;;;;;;;24.90;16.93;;;;;;;2.84;77.36;98577.42;1684687;84;21101;-60
2021/03/05 02:06:41;;;;;;;23.70;15.88;;;;;;;2.84;77.35;98583.48;1677885;84;21196;-60
2021/03/05 02:09:08;;;;;;;24.98;15.63;;;;;;;2.81;77.21;98584.27;1680717;84;21233;-60
2021/03/05 02:11:37;;;;;;;27.00;15.85;;;;;;;2.79;77.22;98588.84;1686295;84;20919;-61
2021/03/05 02:14:06;;;;;;;25.82;16.67;;;;;;;2.77;77.17;98594.23;1689527;83;21018;-60
2021/03/05 02:17:03;;;;;;;21.12;14.93;;;;;;;2.75;77.15;98599.28;1689898;84;21160;-60
2021/03/05 02:20:13;;;;;;;25.37;16.27;;;;;;;2.75;77.19;98600.11;1673285;83;21192;-60
2021/03/05 02:22:58;;;;;;;21.80;14.60;;;;;;;2.75;77.30;98592.72;1681662;83;21362;-61
2021/03/05 02:25:51;;;;;;;27.48;16.52;;;;;;;2.75;77.31;98594.03;1743696;80;20948;-60
2021/03/05 02:29:06;;;;;;;24.50;15.65;;;;;;;2.71;77.38;98583.48;1743831;80;21134;-61
2021/03/05 02:31:45;;;;;;;29.27;17.37;;;;;;;2.68;77.60;98591.16;1744016;80;21038;-61
2021/03/05 02:34:22;;;;;;;26.12;16.15;;;;;;;2.69;77.89;98591.48;1743769;80;21157;-60
2021/03/05 02:36:57;;;;;;;29.98;18.85;;;;;;;2.73;78.12;98594.66;1767383;80;21461;-60
2021/03/05 02:39:36;;;;;;;24.40;17.25;;;;;;;2.74;78.15;98584.51;1761409;80;21015;-59
2021/03/05 02:42:06;;;;;;;27.65;17.95;;;;;;;2.72;78.19;98588.58;1758361;80;21172;-59
2021/03/05 02:44:46;;;;;;;27.20;16.90;;;;;;;2.71;78.33;98589.53;1760630;80;21789;-59
2021/03/05 02:47:15;;;;;;;25.60;16.32;;;;;;;2.70;78.44;98592.31;1769851;80;21224;-60
2021/03/05 02:49:42;;;;;;;22.77;15.90;;;;;;;2.71;78.55;98593.98;1761919;80;21508;-60
2021/03/05 02:52:16;;;;;;;20.55;14.50;;;;;;;2.69;78.45;98598.05;1747995;80;21078;-60
2021/03/05 02:54:44;;;;;;;26.07;15.63;;;;;;;2.67;78.31;98602.62;1739348;82;21022;-60
2021/03/05 02:57:15;;;;;;;23.75;15.18;;;;;;;2.64;78.39;98604.69;1743852;80;21100;-60
2021/03/05 02:59:43;;;;;;;21.87;15.60;;;;;;;2.64;78.53;98606.00;1755848;80;21578;-61
2021/03/05 03:02:10;;;;;;;20.62;14.80;;;;;;;2.65;78.42;98610.30;1752111;80;21387;-60
2021/03/05 03:04:42;;;;;;;25.05;15.35;;;;;;;2.62;78.41;98607.47;1745208;80;21146;-60
2021/03/05 03:07:11;;;;;;;22.42;15.38;;;;;;;2.59;78.33;98605.59;1763815;80;21104;-60
2021/03/05 03:09:38;;;;;;;23.55;15.88;;;;;;;2.55;78.50;98607.70;1744458;80;21145;-60
2021/03/05 03:12:09;;;;;;;22.42;15.48;;;;;;;2.54;78.56;98613.08;1759462;80;21045;-60
2021/03/05 03:14:38;;;;;;;21.45;14.35;;;;;;;2.53;78.69;98606.98;1763341;80;21503;-60
2021/03/05 03:17:07;;;;;;;28.42;16.77;;;;;;;2.53;78.69;98603.56;1705203;84;21840;-61
2021/03/05 03:19:35;;;;;;;28.45;17.55;;;;;;;2.48;78.69;98604.80;1752772;80;21104;-60
2021/03/05 03:22:03;;;;;;;28.62;17.50;;;;;;;2.47;78.71;98611.51;1746983;80;21590;-61
2021/03/05 03:24:31;;;;;;;28.62;16.60;;;;;;;2.47;78.81;98605.78;1756483;80;21172;-60
2021/03/05 03:26:59;;;;;;;30.30;16.93;;;;;;;2.47;78.99;98611.51;1765265;80;21204;-61
2021/03/05 03:29:27;;;;;;;30.48;17.12;;;;;;;2.48;78.97;98617.09;1740414;81;21081;-60
2021/03/05 03:31:54;;;;;;;31.48;18.75;;;;;;;2.49;78.96;98616.13;1707038;82;20985;-60
2021/03/05 03:34:22;;;;;;;33.58;18.67;;;;;;;2.48;78.90;98615.30;1758663;80;21011;-60
2021/03/05 03:36:52;;;;;;;36.17;19.98;;;;;;;2.45;78.89;98610.32;1743825;80;21173;-60
2021/03/05 03:39:20;;;;;;;39.53;19.42;;;;;;;2.44;78.89;98612.62;1755920;80;21166;-61
2021/03/05 03:41:48;;;;;;;36.90;19.30;;;;;;;2.43;78.98;98607.02;1730496;80;21006;-60
2021/03/05 03:44:15;;;;;;;36.28;19.30;;;;;;;2.42;79.04;98611.91;1772214;80;20994;-61
2021/03/05 03:46:47;;;;;;;34.33;19.85;;;;;;;2.43;79.14;98614.89;1774374;80;21053;-61
2021/03/05 03:49:24;;;;;;;32.63;18.90;;;;;;;2.43;79.15;98614.05;1744642;80;21659;-61
2021/03/05 03:51:58;;;;;;;31.52;18.82;;;;;;;2.42;79.22;98612.41;1722287;82;22169;-61
2021/03/05 03:54:26;;;;;;;26.05;17.00;;;;;;;2.42;79.18;98611.91;1744903;80;21007;-61
2021/03/05 03:56:54;;;;;;;24.30;15.60;;;;;;;2.43;79.22;98616.67;1749186;81;20999;-61
2021/03/05 03:59:21;;;;;;;24.05;15.83;;;;;;;2.43;79.09;98619.30;1741861;81;21160;-61
2021/03/05 04:01:49;;;;;;;22.05;15.98;;;;;;;2.44;79.11;98617.03;1735599;82;21114;-60
2021/03/05 04:04:17;;;;;;;26.85;17.07;;;;;;;2.44;78.92;98615.24;1746684;81;21695;-60
2021/03/05 04:06:46;;;;;;;24.02;16.85;;;;;;;2.44;79.00;98614.41;1745227;82;21133;-61
2021/03/05 04:09:13;;;;;;;24.30;15.93;;;;;;;2.41;79.01;98616.00;1751238;81;21116;-61
2021/03/05 04:11:42;;;;;;;23.47;16.05;;;;;;;2.37;79.08;98606.76;1750610;81;21011;-60
2021/03/05 04:14:10;;;;;;;22.48;15.55;;;;;;;2.34;79.27;98601.30;1748885;81;21149;-60
2021/03/05 04:16:38;;;;;;;20.48;14.13;;;;;;;2.36;79.30;98603.78;1750000;81;21403;-60
2021/03/05 04:19:05;;;;;;;23.60;15.83;;;;;;;2.34;79.29;98605.72;1751863;81;20955;-61
2021/03/05 04:21:35;;;;;;;25.60;15.65;;;;;;;2.29;79.41;98606.15;1742232;81;21129;-60
2021/03/05 04:24:03;;;;;;;22.10;14.83;;;;;;;2.25;79.42;98610.00;1717028;82;21623;-60
2021/03/05 04:26:31;;;;;;;18.35;12.20;;;;;;;2.22;79.59;98616.00;1749069;82;21591;-60
2021/03/05 04:28:58;;;;;;;16.15;12.07;;;;;;;2.19;79.75;98619.73;1749104;82;21356;-60
2021/03/05 04:31:27;;;;;;;20.72;13.45;;;;;;;2.16;79.92;98612.16;1747356;82;20962;-60
2021/03/05 04:33:56;;;;;;;19.85;12.93;;;;;;;2.13;80.02;98612.44;1746707;81;21096;-60
2021/03/05 04:36:23;;;;;;;17.02;11.90;;;;;;;2.11;80.04;98607.78;1748105;82;21164;-60
2021/03/05 04:38:52;;;;;;;18.82;13.40;;;;;;;2.11;80.18;98614.34;1739834;81;21137;-61
2021/03/05 04:41:19;;;;;;;18.80;12.58;;;;;;;2.10;80.23;98608.77;1743930;82;21354;-60
2021/03/05 04:43:47;;;;;;;18.32;12.13;;;;;;;2.10;80.35;98599.58;1742277;81;21122;-60
2021/03/05 04:46:14;;;;;;;15.48;11.03;;;;;;;2.09;80.44;98599.22;1741994;82;21014;-60
2021/03/05 04:48:42;;;;;;;13.83;10.03;;;;;;;2.11;80.58;98604.35;1742622;81;21282;-60
2021/03/05 04:51:10;;;;;;;12.73;10.40;;;;;;;2.13;80.66;98603.72;1745809;80;21490;-60
2021/03/05 04:53:37;;;;;;;15.30;10.60;;;;;;;2.15;80.74;98599.16;1742564;81;21215;-60
2021/03/05 04:56:05;;;;;;;13.53;10.72;;;;;;;2.18;80.70;98597.58;1746539;80;21181;-61
2021/03/05 04:58:32;;;;;;;14.58;9.83;;;;;;;2.21;80.66;98598.62;1749849;80;21156;-61
2021/03/05 05:01:00;;;;;;;18.07;12.82;;;;;;;2.21;80.55;98599.45;1744656;82;21061;-61
2021/03/05 05:03:28;;;;;;;18.00;12.73;;;;;;;2.21;80.59;98604.70;1751582;80;21120;-62
2021/03/05 05:05:56;;;;;;;26.87;17.45;;;;;;;2.19;80.68;98601.87;1740382;82;21348;-60
2021/03/05 05:08:23;;;;;;;21.80;16.90;;;;;;;2.17;80.77;98608.55;1743882;81;21128;-61
2021/03/05 05:10:51;;;;;;;26.00;18.50;;;;;;;2.19;80.82;98607.12;1748417;81;21135;-62
2021/03/05 05:13:19;;;;;;;34.43;21.75;;;;;;;2.20;80.92;98607.44;1744108;80;21439;-60
2021/03/05 05:15:46;;;;;;;35.78;24.43;;;;;;;2.21;80.91;98601.23;1737990;80;21238;-63
2021/03/05 05:18:15;;;;;;;36.73;25.62;;;;;;;2.17;81.00;98596.74;1735464;81;22223;-63
2021/03/05 05:20:42;;;;;;;39.58;26.57;;;;;;;2.16;81.13;98599.04;1746032;81;21701;-62
2021/03/05 05:23:10;;;;;;;41.28;25.90;;;;;;;2.15;81.29;98592.60;1748301;81;21129;-62
2021/03/05 05:25:38;;;;;;;33.05;21.90;;;;;;;2.16;81.37;98598.20;1739030;81;21212;-62
2021/03/05 05:28:05;;;;;;;29.75;19.52;;;;;;;2.19;81.40;98602.67;1727778;80;21132;-63
2021/03/05 05:30:33;;;;;;;26.55;20.43;;;;;;;2.22;81.32;98605.02;1729996;81;21210;-62
2021/03/05 05:33:00;;;;;;;26.87;20.15;;;;;;;2.25;81.24;98608.69;1747940;81;21120;-62
2021/03/05 05:35:29;;;;;;;28.45;20.02;;;;;;;2.27;81.22;98612.47;1748706;81;21198;-61
2021/03/05 05:37:59;;;;;;;30.80;21.85;;;;;;;2.28;81.31;98607.58;1744184;80;21240;-66
2021/03/05 05:40:29;;;;;;;38.95;27.25;;;;;;;2.30;81.31;98604.33;1734193;80;21188;-62
2021/03/05 05:42:56;;;;;;;44.30;28.27;;;;;;;2.30;81.26;98616.14;1739113;82;21382;-63
2021/03/05 05:45:24;;;;;;;48.80;28.45;;;;;;;2.31;81.06;98611.24;1743433;80;21564;-64
2021/03/05 05:47:54;;;;;;;43.75;25.57;;;;;;;2.27;81.02;98614.62;1743549;81;21033;-62
2021/03/05 05:50:22;;;;;;;31.75;21.60;;;;;;;2.25;80.99;98613.94;1704433;83;21167;-62
2021/03/05 05:52:56;;;;;;;25.52;17.50;;;;;;;2.21;81.09;98621.76;1710032;83;21102;-61
2021/03/05 05:55:24;;;;;;;21.87;14.05;;;;;;;2.19;81.16;98624.98;1708116;83;24348;-61
2021/03/05 05:57:52;;;;;;;20.52;13.90;;;;;;;2.17;81.36;98632.64;1761845;80;21208;-63
2021/03/05 06:00:22;;;;;;;20.37;14.13;;;;;;;2.15;81.48;98631.48;1758430;80;21614;-58
2021/03/05 06:02:49;;;;;;;15.40;11.78;;;;;;;2.16;81.54;98630.53;1757648;80;21016;-71
2021/03/05 06:05:17;;;;;;;20.00;12.20;;;;;;;2.19;81.60;98628.91;1756317;80;21137;-61
2021/03/05 06:07:47;;;;;;;19.45;12.63;;;;;;;2.21;81.59;98636.66;1710842;83;21380;-61
2021/03/05 06:10:15;;;;;;;14.55;11.65;;;;;;;2.20;81.77;98632.38;1761026;80;21135;-61
2021/03/05 06:12:47;;;;;;;14.25;11.25;;;;;;;2.24;81.80;98634.58;1761844;80;21669;-62
2021/03/05 06:15:17;;;;;;;14.18;10.85;;;;;;;2.27;81.74;98633.47;1780108;80;21634;-61
2021/03/05 06:17:47;;;;;;;15.13;10.50;;;;;;;2.33;81.90;98638.17;1779880;80;21187;-60
2021/03/05 06:20:16;;;;;;;17.50;11.43;;;;;;;2.39;81.78;98635.00;1780080;80;22237;-61
2021/03/05 06:22:46;;;;;;;14.10;11.10;;;;;;;2.44;81.87;98645.44;1762571;80;21244;-63
2021/03/05 06:25:16;;;;;;;17.17;11.75;;;;;;;2.49;81.74;98641.07;1766691;80;21123;-61
2021/03/05 06:27:43;;;;;;;15.50;10.78;;;;;;;2.50;81.72;98642.23;1722115;80;21147;-61
2021/03/05 06:30:13;;;;;;;17.82;11.83;;;;;;;2.48;81.81;98644.66;1762798;80;21606;-61
2021/03/05 06:32:41;;;;;;;17.27;12.00;;;;;;;2.48;81.99;98648.11;1734974;80;21283;-62
2021/03/05 06:35:10;;;;;;;14.50;11.28;;;;;;;2.53;82.10;98656.07;1757951;80;21152;-62
2021/03/05 06:37:46;;;;;;;12.68;9.53;;;;;;;2.55;82.19;98655.44;1757446;80;21618;-61
2021/03/05 06:40:17;;;;;;;13.68;11.00;;;;;;;2.55;82.25;98657.59;1760805;80;21583;-61
2021/03/05 06:42:50;;;;;;;15.72;10.43;;;;;;;2.49;82.44;98653.72;1775818;80;21215;-61
2021/03/05 06:45:24;;;;;;;14.20;10.93;;;;;;;2.49;82.79;98652.41;1710679;83;21433;-60
2021/03/05 06:48:09;;;;;;;13.70;10.85;;;;;;;2.49;83.05;98661.59;1774903;80;21220;-60
2021/03/05 06:50:40;;;;;;;14.10;10.75;;;;;;;2.50;83.31;98666.38;1779885;80;21010;-61
2021/03/05 06:53:21;;;;;;;16.48;12.05;;;;;;;2.53;83.63;98664.75;1776349;80;20930;-65
2021/03/05 06:55:49;;;;;;;12.78;10.05;;;;;;;2.54;83.79;98669.05;1777542;80;20941;-60
2021/03/05 06:58:18;;;;;;;18.27;11.40;;;;;;;2.56;83.96;98672.83;1688894;84;23529;-61
2021/03/05 07:00:46;;;;;;;14.05;10.43;;;;;;;2.56;84.13;98672.83;1766820;81;21199;-61
2021/03/05 07:03:23;;;;;;;14.73;10.78;;;;;;;2.57;84.21;98670.56;1688969;85;21156;-63
2021/03/05 07:05:54;;;;;;;13.45;11.05;;;;;;;2.56;84.44;98672.83;1766001;81;21614;-60
2021/03/05 07:08:43;;;;;;;16.85;11.08;;;;;;;2.50;84.72;98681.61;1756707;81;21088;-64
2021/03/05 07:11:14;;;;;;;18.50;11.12;;;;;;;2.47;85.12;98685.02;1754236;80;21464;-61
2021/03/05 07:13:50;;;;;;;16.85;10.95;;;;;;;2.51;85.46;98677.20;1754180;80;21163;-61
2021/03/05 07:16:18;;;;;;;15.25;10.90;;;;;;;2.60;85.53;98684.73;1729086;81;21685;-61
2021/03/05 07:18:46;;;;;;;13.98;9.58;;;;;;;2.62;85.54;98687.56;1758358;80;21195;-61
2021/03/05 07:21:18;;;;;;;14.68;10.93;;;;;;;2.62;85.63;98695.44;1745927;81;21657;-61
2021/03/05 07:23:49;;;;;;;16.07;11.88;;;;;;;2.59;85.86;98699.66;1758430;81;21387;-60
2021/03/05 07:26:16;;;;;;;15.10;10.38;;;;;;;2.66;85.88;98697.31;1758333;81;21105;-60
2021/03/05 07:28:46;;;;;;;15.53;10.65;;;;;;;2.65;85.73;98704.84;1724947;81;21014;-60
2021/03/05 07:31:21;;;;;;;13.95;11.45;;;;;;;2.59;85.90;98706.70;1757258;81;21001;-62
2021/03/05 07:33:55;;;;;;;16.25;11.55;;;;;;;2.60;86.31;98713.14;1757518;81;21097;-60
2021/03/05 07:36:34;;;;;;;14.23;11.35;;;;;;;2.63;86.25;98713.34;1757611;81;21565;-61
2021/03/05 07:39:04;;;;;;;12.95;10.05;;;;;;;2.66;86.57;98712.56;1730485;81;21108;-61
2021/03/05 07:41:32;;;;;;;13.10;10.50;;;;;;;2.76;86.61;98712.58;1747224;81;21566;-61
2021/03/05 07:44:00;;;;;;;12.98;9.38;;;;;;;2.79;86.33;98707.86;1688354;84;21152;-61
2021/03/05 07:46:28;;;;;;;14.40;11.22;;;;;;;2.77;86.18;98704.55;1749239;81;21120;-59
2021/03/05 07:48:56;;;;;;;16.07;11.43;;;;;;;2.70;86.29;98711.34;1733038;81;21435;-59
2021/03/05 07:51:23;;;;;;;16.65;11.12;;;;;;;2.65;86.50;98718.80;1729465;81;21230;-61
2021/03/05 07:53:53;;;;;;;14.65;10.40;;;;;;;2.65;86.88;98717.97;1750235;81;21045;-60
2021/03/05 07:56:46;;;;;;;14.05;10.88;;;;;;;2.69;86.95;98725.42;1761108;81;21207;-60
2021/03/05 07:59:45;;;;;;;12.50;9.80;;;;;;;2.75;86.89;98728.81;1747006;80;21132;-63
2021/03/05 08:02:13;;;;;;;10.15;9.08;;;;;;;2.75;86.63;98735.86;1760900;80;21203;-61
2021/03/05 08:07:33;;;;;;;12.73;9.53;;;;;;;2.78;86.78;98733.80;1846770;76;28233;-61
2021/03/05 08:10:01;;;;;;;10.70;9.13;;;;;;;2.77;86.70;98735.23;1784660;79;20997;-62
2021/03/05 08:15:15;;;;;;;14.23;10.55;;;;;;;2.68;86.51;98739.55;1787594;79;21270;-61
2021/03/05 08:17:44;;;;;;;12.35;9.28;;;;;;;2.64;86.98;98735.99;1801147;77;21244;-59
2021/03/05 08:20:24;;;;;;;13.40;10.40;;;;;;;2.66;87.06;98736.20;1739807;81;21080;-60
2021/03/05 08:23:03;;;;;;;10.93;8.75;;;;;;;2.66;87.00;98741.96;1757996;80;21007;-59
2021/03/05 08:25:39;;;;;;;10.05;8.80;;;;;;;2.64;87.09;98746.50;1762632;80;22188;-59
2021/03/05 08:28:10;;;;;;;12.93;9.58;;;;;;;2.59;87.23;98750.02;1761071;80;22713;-62
2021/03/05 08:30:42;;;;;;;11.95;9.98;;;;;;;2.48;87.45;98749.67;1758324;79;21556;-60
2021/03/05 08:33:33;;;;;;;10.38;8.28;;;;;;;2.43;87.99;98750.09;1753688;80;21133;-61
2021/03/05 08:35:59;;;;;;;11.22;9.25;;;;;;;2.40;88.13;98752.98;1763766;79;21141;-62
2021/03/05 08:38:37;;;;;;;12.23;9.40;;;;;;;2.36;88.49;98750.30;1763836;80;22215;-62
2021/03/05 08:41:07;;;;;;;9.48;7.87;;;;;;;2.38;88.76;98743.58;1775632;79;21130;-62
2021/03/05 08:43:36;;;;;;;8.90;8.00;;;;;;;2.38;88.84;98749.67;1759437;80;21067;-60
2021/03/05 08:46:08;;;;;;;9.55;7.33;;;;;;;2.43;89.08;98755.81;1763131;79;21153;-59
2021/03/05 08:48:46;;;;;;;7.47;6.65;;;;;;;2.47;88.87;98761.99;1754312;80;21611;-61
2021/03/05 08:51:16;;;;;;;11.88;7.37;;;;;;;2.47;88.90;98758.05;1744023;82;21433;-60
2021/03/05 08:53:49;;;;;;;9.35;7.15;;;;;;;2.46;88.70;98762.95;1735638;81;21171;-60
2021/03/05 08:56:27;;;;;;;8.28;6.45;;;;;;;2.41;88.71;98765.16;1734095;82;21144;-60
2021/03/05 08:59:01;;;;;;;5.17;4.67;;;;;;;2.36;88.75;98770.46;1749859;80;21181;-60
2021/03/05 09:01:36;;;;;;;4.80;4.30;;;;;;;2.29;88.29;98771.50;1752485;79;21150;-61
2021/03/05 09:04:12;;;;;;;5.45;3.52;;;;;;;2.16;87.79;98782.73;1749850;80;21383;-60
2021/03/05 09:06:54;;;;;;;4.78;4.17;;;;;;;2.05;88.05;98784.61;1756128;80;24987;-59
2021/03/05 09:09:26;;;;;;;4.47;3.77;;;;;;;1.98;88.35;98791.37;1739694;81;20986;-61
2021/03/05 09:12:13;;;;;;;4.55;4.12;;;;;;;1.93;88.42;98795.67;1777356;79;21104;-62
2021/03/05 09:14:42;;;;;;;5.20;4.70;;;;;;;1.85;88.39;98795.53;1736242;82;21125;-63
2021/03/05 09:17:10;;;;;;;5.30;4.80;;;;;;;1.75;88.65;98803.81;1745895;81;22292;-65
2021/03/05 09:19:46;;;;;;;5.90;5.33;;;;;;;1.71;88.88;98808.98;1744479;80;20959;-61
2021/03/05 09:22:24;;;;;;;6.10;5.60;;;;;;;1.70;89.07;98808.62;1722347;82;21022;-61
2021/03/05 09:25:00;;;;;;;8.03;7.33;;;;;;;1.71;89.35;98807.20;1726650;82;21148;-61
2021/03/05 09:27:39;;;;;;;8.10;7.40;;;;;;;1.73;89.46;98810.52;1724779;81;21148;-60
2021/03/05 09:30:21;;;;;;;6.92;6.20;;;;;;;1.71;89.39;98813.76;1732874;81;21009;-59
2021/03/05 09:32:57;;;;;;;7.50;6.35;;;;;;;1.65;89.49;98812.13;1730424;82;21100;-60
2021/03/05 09:35:26;;;;;;;8.13;6.47;;;;;;;1.57;89.69;98820.64;1732652;82;28537;-61
2021/03/05 09:37:54;;;;;;;6.17;5.58;;;;;;;1.53;89.61;98823.19;1739932;81;21615;-60
2021/03/05 09:40:22;;;;;;;5.65;5.12;;;;;;;1.50;89.74;98823.91;1739138;81;21075;-60
2021/03/05 09:42:55;;;;;;;5.40;4.90;;;;;;;1.52;89.69;98825.92;1746715;80;21195;-60
2021/03/05 09:45:38;;;;;;;5.03;4.33;;;;;;;1.50;89.60;98831.30;1713810;82;21076;-61
2021/03/05 09:48:12;;;;;;;5.80;4.92;;;;;;;1.49;89.66;98830.10;1746555;80;21339;-60
2021/03/05 09:51:07;;;;;;;5.60;5.10;;;;;;;1.49;89.81;98839.28;1743874;79;21139;-61
2021/03/05 09:53:38;;;;;;;5.50;4.28;;;;;;;1.54;89.99;98839.75;1757880;80;21042;-62
2021/03/05 09:56:09;;;;;;;4.42;4.03;;;;;;;1.57;90.23;98832.91;1749729;80;21227;-61
2021/03/05 09:58:37;;;;;;;4.53;4.12;;;;;;;1.61;90.45;98838.27;1734873;82;20982;-61
2021/03/05 10:01:19;;;;;;;4.97;3.33;;;;;;;1.62;90.39;98834.19;1727926;81;21034;-63
2021/03/05 10:03:58;;;;;;;4.37;2.80;;;;;;;1.68;90.67;98844.64;1729825;81;21206;-60
2021/03/05 10:06:27;;;;;;;2.92;2.62;;;;;;;1.71;90.49;98847.02;1726397;81;21716;-61
2021/03/05 10:09:06;;;;;;;2.60;2.33;;;;;;;1.75;90.53;98851.86;1729149;79;21362;-64
2021/03/05 10:11:44;;;;;;;2.83;2.58;;;;;;;1.80;90.22;98854.08;1729348;80;21107;-60
2021/03/05 10:14:23;;;;;;;3.47;3.10;;;;;;;1.84;89.88;98857.65;1723571;82;20970;-62
2021/03/05 10:16:52;;;;;;;6.40;5.12;;;;;;;1.86;89.74;98849.16;1721412;82;21005;-61
2021/03/05 10:19:21;;;;;;;4.00;3.58;;;;;;;1.87;89.48;98857.87;1722622;82;21029;-60
2021/03/05 10:22:16;;;;;;;4.67;3.17;;;;;;;1.96;89.54;98854.44;1722597;82;21739;-60
2021/03/05 10:24:45;;;;;;;3.92;3.55;;;;;;;2.04;89.21;98854.62;1722048;82;21120;-60
2021/03/05 10:27:18;;;;;;;3.95;3.50;;;;;;;2.08;88.69;98852.09;1728193;82;21100;-61
2021/03/05 10:29:51;;;;;;;3.35;3.05;;;;;;;2.10;88.07;98854.10;1739258;82;21175;-60
2021/03/05 10:32:42;;;;;;;3.37;2.95;;;;;;;2.05;87.71;98852.36;1730378;80;21574;-63
2021/03/05 10:35:12;;;;;;;4.25;3.02;;;;;;;2.03;87.80;98853.45;1720598;82;21392;-60
2021/03/05 10:37:40;;;;;;;3.95;3.55;;;;;;;1.97;87.98;98858.73;1719379;82;21003;-61
2021/03/05 10:40:10;;;;;;;4.25;3.10;;;;;;;1.90;88.25;98852.84;1723630;82;21029;-60
2021/03/05 10:42:37;;;;;;;4.37;3.17;;;;;;;1.83;88.98;98849.89;1724187;81;21148;-60
2021/03/05 10:45:06;;;;;;;4.85;3.27;;;;;;;1.81;89.28;98851.82;1722093;82;21002;-60
2021/03/05 10:47:34;;;;;;;4.80;3.35;;;;;;;1.77;88.98;98856.48;1723419;82;21481;-61
2021/03/05 10:50:03;;;;;;;4.42;2.87;;;;;;;1.72;89.18;98861.29;1720696;82;21228;-61
2021/03/05 10:52:30;;;;;;;6.60;4.05;;;;;;;1.72;89.35;98869.66;1727566;82;21037;-61
2021/03/05 10:54:58;;;;;;;5.40;3.52;;;;;;;1.75;89.39;98861.03;1719626;82;21069;-60
2021/03/05 10:57:25;;;;;;;4.35;3.27;;;;;;;1.77;88.94;98870.10;1722894;82;21076;-60
2021/03/05 10:59:53;;;;;;;3.50;3.20;;;;;;;1.82;88.76;98866.61;1722533;82;21458;-60
2021/03/05 11:02:21;;;;;;;4.85;4.42;;;;;;;1.93;88.47;98875.69;1698699;82;20966;-60
2021/03/05 11:04:48;;;;;;;4.17;3.47;;;;;;;1.99;87.87;98873.02;1731620;82;21139;-60
2021/03/05 11:07:16;;;;;;;3.72;3.33;;;;;;;2.01;87.53;98875.86;1726636;82;21021;-62
2021/03/05 11:09:44;;;;;;;3.12;2.35;;;;;;;2.01;87.06;98882.93;1735805;81;21167;-60
2021/03/05 11:12:13;;;;;;;2.25;2.05;;;;;;;1.97;86.24;98882.35;1759928;80;22225;-60
2021/03/05 11:14:41;;;;;;;2.15;1.85;;;;;;;1.90;85.90;98879.91;1740646;80;20958;-60
2021/03/05 11:17:08;;;;;;;1.95;1.60;;;;;;;1.84;85.56;98889.13;1761748;80;21005;-61
2021/03/05 11:19:37;;;;;;;2.33;2.12;;;;;;;1.80;85.61;98893.42;1760823;79;21076;-59
2021/03/05 11:22:05;;;;;;;3.52;2.42;;;;;;;1.78;85.82;98894.88;1742786;80;21149;-61
2021/03/05 11:24:33;;;;;;;3.98;2.50;;;;;;;1.76;85.64;98890.72;1747991;81;21462;-61
2021/03/05 11:27:02;;;;;;;3.10;2.00;;;;;;;1.75;85.78;98890.36;1749232;79;21068;-61
2021/03/05 11:29:31;;;;;;;3.12;2.30;;;;;;;1.76;85.75;98884.16;1748935;80;21000;-61
2021/03/05 11:32:00;;;;;;;6.65;3.17;;;;;;;1.74;85.80;98886.09;1756162;80;21164;-61
2021/03/05 11:34:30;;;;;;;4.75;3.17;;;;;;;1.71;86.05;98887.66;1751013;80;21142;-60
2021/03/05 11:37:00;;;;;;;5.30;2.98;;;;;;;1.64;86.42;98887.33;1753767;80;22291;-60
2021/03/05 11:39:27;;;;;;;3.33;2.50;;;;;;;1.61;86.57;98888.08;1748827;80;21004;-61
2021/03/05 11:41:54;;;;;;;2.60;2.20;;;;;;;1.63;86.63;98890.09;1748816;79;21199;-59
2021/03/05 11:44:22;;;;;;;2.45;2.17;;;;;;;1.66;86.63;98885.43;1749506;80;21051;-62
2021/03/05 11:46:50;;;;;;;2.40;2.20;;;;;;;1.68;85.99;98892.68;1749090;80;21224;-59
2021/03/05 11:49:17;;;;;;;2.60;2.35;;;;;;;1.65;85.81;98894.72;1755917;80;21538;-60
2021/03/05 11:51:45;;;;;;;2.52;2.33;;;;;;;1.63;86.01;98890.09;1726956;81;21087;-60